Nearby METAR Reports

 

KSJC - San Jose, California, USA
Distance from station: NE 9mi, 14km
Updated: Sun, 29-May-2022 1:53am CDT
Mostly cloudy
Mostly cloudy
 Wind from NW
Wind: NW 17 mph , 28 km/h
Temperature: 63°F , 17°C
Dew Point: 54°F , 12°C
Humidity: 73%
Barometer: 29.96 inHg , 1014.6 hPa
Clouds: Mostly cloudy
Visibility: 10 miles , 16 km
Cloud details: Mostly cloudy 2300 ft
Mostly cloudy 5000 ft
2022/05/29 06:53 KSJC 290653Z 32015KT 10SM BKN023 BKN050 17/12 A2996 RMK AO2 SLP146 T01670117
KNUQ - Moffett Nas/Mtn, California, USA
Distance from station: N 9mi, 14km
Updated: Sun, 29-May-2022 2:15am CDT
Overcast
Overcast
 Wind from NW
Wind: NW 9 mph , 15 km/h
Temperature: 59°F , 15°C
Dew Point: 52°F , 11°C
Humidity: 77%
Barometer: 29.97 inHg , 1014.9 hPa
Clouds: Overcast
Visibility: 10 miles , 16 km
Cloud details: Mostly cloudy 1900 ft
Overcast 2400 ft
2022/05/29 07:15 KNUQ 290715Z AUTO 31008KT 10SM BKN019 OVC024 15/11 A2997 RMK AO2
 
KPAO - Palo Alto, California, USA
Distance from station: NNW 14mi, 23km
Updated: Sat, 28-May-2022 10:47pm CDT
NOT Current
Mostly cloudy
Mostly cloudy
 Wind from W
Wind: W 13 mph , 20 km/h
Temperature: 63°F , 17°C
Dew Point: 54°F , 12°C
Humidity: 73%
Barometer: 29.96 inHg , 1014.6 hPa
Clouds: Mostly cloudy
Visibility: 10 miles , 16 km
Cloud details: Mostly cloudy 2500 ft
2022/05/29 03:47 KPAO 290347Z 28011KT 10SM BKN025 17/12 A2996 RMK LAST
KRHV - San Jose/Reid, California, USA
Distance from station: ENE 12mi, 19km
Updated: Sat, 28-May-2022 11:55pm CDT
NOT Current
Mostly cloudy
Mostly cloudy
 Wind from NW
Wind: NW 10 mph , 17 km/h
Temperature: 63°F , 17°C
Dew Point: 54°F , 12°C
Humidity: 73%
Barometer: 29.97 inHg , 1014.9 hPa
Clouds: Mostly cloudy
Visibility: 10 miles , 16 km
Cloud details: Partly cloudy 2100 ft
Mostly cloudy 2800 ft
Mostly cloudy 6500 ft
2022/05/29 04:55 KRHV 290455Z 32009KT 10SM SCT021 BKN028 BKN065 17/12 A2997 RMK LAST
 
KOAK - Oakland, California, USA
Distance from station: NNW 31mi, 50km
Updated: Sun, 29-May-2022 2:17am CDT
Partly cloudy
Partly cloudy
 Wind from WNW
Wind: WNW 10 mph , 17 km/h
Temperature: 55°F , 13°C
Dew Point: 52°F , 11°C
Humidity: 88%
Barometer: 29.97 inHg , 1014.9 hPa
Clouds: Partly cloudy
Visibility: 10 miles , 16 km
Cloud details: Partly cloudy 800 ft
2022/05/29 07:17 KOAK 290717Z 29009KT 10SM SCT008 13/11 A2997 RMK AO2 T01280106
KSQL - San Carlos Airpo, California, USA
Distance from station: NW 21mi, 34km
Updated: Sun, 29-May-2022 2:15am CDT
Overcast
Overcast
 Wind from W
Wind: W 9 mph , 15 km/h
Temperature: 55°F , 13°C
Dew Point: 50°F , 10°C
Humidity: 82%
Barometer: 29.99 inHg , 1015.6 hPa
Clouds: Overcast
Visibility: 10 miles , 16 km
Cloud details: Few Clouds 1000 ft
Overcast 1500 ft
2022/05/29 07:15 KSQL 290715Z AUTO 27008KT 10SM FEW010 OVC015 13/10 A2999 RMK AO2
 
KSFO - San Francisco, California, USA
Distance from station: NW 30mi, 49km
Updated: Sun, 29-May-2022 2:11am CDT
Partly cloudy
Partly cloudy
 Wind from W
Wind: W 26 mph , 43 km/h
Temperature: 55°F , 13°C
Dew Point: 48°F , 9°C
Humidity: 77%
Barometer: 29.97 inHg , 1014.9 hPa
Clouds: Partly cloudy
Visibility: 10 miles , 16 km
Cloud details: Few Clouds 400 ft
Partly cloudy 700 ft
2022/05/29 07:11 KSFO 290711Z 28023KT 10SM FEW004 SCT007 13/09 A2997 RMK AO2 PK WND 28031/0658 T01280094
KE16 - San Martin, California, USA
Distance from station: ESE 27mi, 43km
Updated: Sun, 29-May-2022 2:15am CDT
Overcast
Overcast
 Wind from NW
Wind: NW 8 mph , 13 km/h
Temperature: 61°F , 16°C
Dew Point: 54°F , 12°C
Humidity: 77%
Barometer: 29.97 inHg , 1014.9 hPa
Clouds: Overcast
Visibility: 10 miles , 16 km
Cloud details: Few Clouds 2300 ft
Mostly cloudy 3100 ft
Overcast 4700 ft
2022/05/29 07:15 KE16 290715Z AUTO 32007KT 10SM FEW023 BKN031 OVC047 16/12 A2997 RMK AO2 PWINO PNO
 
KWVI - Watsonville, California, USA
Distance from station: SSE 27mi, 44km
Updated: Sun, 29-May-2022 1:53am CDT
Overcast
Overcast
 Wind from calm
Wind: Calm
Temperature: 55°F , 13°C
Dew Point: 54°F , 12°C
Humidity: 94%
Barometer: 29.97 inHg , 1014.9 hPa
Clouds: Overcast
Visibility: 10 miles , 16 km
Cloud details: Overcast 800 ft
2022/05/29 06:53 KWVI 290653Z AUTO 00000KT 10SM OVC008 13/12 A2997 RMK AO2 SLP149 T01280117
KHAF - Half Moon Bay, California, USA
Distance from station: WNW 31mi, 50km
Updated: Sun, 29-May-2022 2:15am CDT
Mist, Overcast
Mist, Overcast
 Wind from NNW
Wind: NNW 16 mph , 26 km/h
Temperature: 52°F , 11°C
Dew Point: 52°F , 11°C
Humidity: 100%
Barometer: 29.99 inHg , 1015.6 hPa
Summary: Mist
Clouds: Overcast
Visibility: 4 miles , 6 km
Cloud details: Overcast 1200 ft
2022/05/29 07:15 KHAF 290715Z AUTO 33014KT 4SM BR OVC012 11/11 A2999 RMK AO2
 
KHWD - Hayward, California, USA
Distance from station: N 28mi, 44km
Updated: Sun, 29-May-2022 1:54am CDT
Overcast
Overcast
 Wind from W
Wind: W 15 mph , 24 km/h
Temperature: 55°F , 13°C
Dew Point: 54°F , 12°C
Humidity: 94%
Barometer: 29.97 inHg , 1014.9 hPa
Clouds: Overcast
Visibility: 10 miles , 16 km
Cloud details: Mostly cloudy 500 ft
Overcast 1100 ft
2022/05/29 06:54 KHWD 290654Z 27013KT 10SM BKN005 OVC011 13/12 A2997 RMK AO2 SLP158 T01330117
KLVK - Livermore, California, USA
Distance from station: NNE 31mi, 51km
Updated: Sun, 29-May-2022 12:53am CDT
NOT Current
Overcast
Overcast
 Wind from WSW
Wind: WSW 9 mph , 15 km/h
Temperature: 59°F , 15°C
Dew Point: 54°F , 12°C
Humidity: 82%
Barometer: 29.95 inHg , 1014.2 hPa
Clouds: Overcast
Visibility: 10 miles , 16 km
Cloud details: Overcast 1600 ft
2022/05/29 05:53 KLVK 290553Z AUTO 25008KT 10SM OVC016 15/12 A2995 RMK AO2 SLP139 T01500122 10211 20150 53001